sensor_id;sensor_type;location;lat;lon;timestamp;P1;durP1;ratioP1;P2;durP2;ratioP2
68126;SDS011;54931;52.098;21.006;2022-12-07T00:01:44;48.20;;;20.10;;
68126;SDS011;54931;52.098;21.006;2022-12-07T00:04:15;47.80;;;20.40;;
68126;SDS011;54931;52.098;21.006;2022-12-07T00:06:47;47.10;;;19.60;;
68126;SDS011;54931;52.098;21.006;2022-12-07T00:09:21;45.50;;;20.80;;
68126;SDS011;54931;52.098;21.006;2022-12-07T00:11:50;42.40;;;19.10;;
68126;SDS011;54931;52.098;21.006;2022-12-07T00:14:19;42.00;;;18.20;;
68126;SDS011;54931;52.098;21.006;2022-12-07T00:16:49;43.80;;;20.20;;
68126;SDS011;54931;52.098;21.006;2022-12-07T00:19:18;45.20;;;19.30;;
68126;SDS011;54931;52.098;21.006;2022-12-07T00:21:47;41.10;;;17.30;;
68126;SDS011;54931;52.098;21.006;2022-12-07T00:24:14;40.60;;;17.10;;
68126;SDS011;54931;52.098;21.006;2022-12-07T00:26:42;42.80;;;18.40;;
68126;SDS011;54931;52.098;21.006;2022-12-07T00:29:21;46.30;;;19.20;;
68126;SDS011;54931;52.098;21.006;2022-12-07T00:31:50;41.40;;;17.90;;
68126;SDS011;54931;52.098;21.006;2022-12-07T00:34:20;42.30;;;19.20;;
68126;SDS011;54931;52.098;21.006;2022-12-07T00:36:49;47.70;;;18.80;;
68126;SDS011;54931;52.098;21.006;2022-12-07T00:39:17;46.80;;;21.60;;
68126;SDS011;54931;52.098;21.006;2022-12-07T00:41:45;45.00;;;20.40;;
68126;SDS011;54931;52.098;21.006;2022-12-07T00:44:13;41.60;;;18.30;;
68126;SDS011;54931;52.098;21.006;2022-12-07T00:46:41;45.00;;;21.30;;
68126;SDS011;54931;52.098;21.006;2022-12-07T00:49:08;47.90;;;21.30;;
68126;SDS011;54931;52.098;21.006;2022-12-07T00:51:36;45.40;;;20.30;;
68126;SDS011;54931;52.098;21.006;2022-12-07T00:54:03;44.90;;;18.20;;
68126;SDS011;54931;52.098;21.006;2022-12-07T00:56:31;42.80;;;20.40;;
68126;SDS011;54931;52.098;21.006;2022-12-07T00:59:01;44.70;;;21.50;;
68126;SDS011;54931;52.098;21.006;2022-12-07T01:01:33;42.70;;;18.50;;
68126;SDS011;54931;52.098;21.006;2022-12-07T01:04:04;41.90;;;18.40;;
68126;SDS011;54931;52.098;21.006;2022-12-07T01:06:32;45.30;;;20.40;;
68126;SDS011;54931;52.098;21.006;2022-12-07T01:09:02;37.40;;;16.30;;
68126;SDS011;54931;52.098;21.006;2022-12-07T01:11:32;36.60;;;16.80;;
68126;SDS011;54931;52.098;21.006;2022-12-07T01:14:01;35.10;;;15.90;;
68126;SDS011;54931;52.098;21.006;2022-12-07T01:16:30;36.20;;;16.30;;
68126;SDS011;54931;52.098;21.006;2022-12-07T01:19:00;34.90;;;16.10;;
68126;SDS011;54931;52.098;21.006;2022-12-07T01:21:31;31.60;;;14.40;;
68126;SDS011;54931;52.098;21.006;2022-12-07T01:24:07;32.40;;;13.80;;
68126;SDS011;54931;52.098;21.006;2022-12-07T01:26:36;35.80;;;15.10;;
68126;SDS011;54931;52.098;21.006;2022-12-07T01:29:04;34.60;;;15.50;;
68126;SDS011;54931;52.098;21.006;2022-12-07T01:31:33;29.30;;;14.70;;
68126;SDS011;54931;52.098;21.006;2022-12-07T01:34:01;30.90;;;14.40;;
68126;SDS011;54931;52.098;21.006;2022-12-07T01:36:31;30.30;;;12.20;;
68126;SDS011;54931;52.098;21.006;2022-12-07T01:39:04;23.50;;;10.50;;
68126;SDS011;54931;52.098;21.006;2022-12-07T01:41:36;28.70;;;12.00;;
68126;SDS011;54931;52.098;21.006;2022-12-07T01:44:25;30.60;;;12.90;;
68126;SDS011;54931;52.098;21.006;2022-12-07T01:46:59;34.50;;;15.10;;
68126;SDS011;54931;52.098;21.006;2022-12-07T01:49:41;25.60;;;13.30;;
68126;SDS011;54931;52.098;21.006;2022-12-07T01:52:28;23.60;;;12.70;;
68126;SDS011;54931;52.098;21.006;2022-12-07T01:55:11;28.70;;;12.30;;
68126;SDS011;54931;52.098;21.006;2022-12-07T01:57:52;23.40;;;11.40;;
68126;SDS011;54931;52.098;21.006;2022-12-07T02:00:22;22.70;;;11.70;;
68126;SDS011;54931;52.098;21.006;2022-12-07T02:03:02;19.80;;;10.10;;
68126;SDS011;54931;52.098;21.006;2022-12-07T02:05:34;22.20;;;8.90;;
68126;SDS011;54931;52.098;21.006;2022-12-07T02:08:04;21.00;;;11.50;;
68126;SDS011;54931;52.098;21.006;2022-12-07T02:10:32;22.00;;;10.90;;
68126;SDS011;54931;52.098;21.006;2022-12-07T02:13:13;22.20;;;10.20;;
68126;SDS011;54931;52.098;21.006;2022-12-07T02:16:02;20.80;;;11.00;;
68126;SDS011;54931;52.098;21.006;2022-12-07T02:28:07;23.20;;;11.80;;
68126;SDS011;54931;52.098;21.006;2022-12-07T02:30:47;22.10;;;10.50;;
68126;SDS011;54931;52.098;21.006;2022-12-07T02:33:28;22.40;;;10.70;;
68126;SDS011;54931;52.098;21.006;2022-12-07T02:36:02;21.80;;;9.10;;
68126;SDS011;54931;52.098;21.006;2022-12-07T02:39:01;22.10;;;11.50;;
68126;SDS011;54931;52.098;21.006;2022-12-07T02:41:52;19.80;;;9.20;;
68126;SDS011;54931;52.098;21.006;2022-12-07T02:44:26;19.90;;;10.90;;
68126;SDS011;54931;52.098;21.006;2022-12-07T02:47:02;17.40;;;9.30;;
68126;SDS011;54931;52.098;21.006;2022-12-07T02:49:33;17.60;;;9.00;;
68126;SDS011;54931;52.098;21.006;2022-12-07T02:52:03;16.70;;;8.50;;
68126;SDS011;54931;52.098;21.006;2022-12-07T02:54:31;20.30;;;9.30;;
68126;SDS011;54931;52.098;21.006;2022-12-07T03:00:14;16.70;;;9.00;;
68126;SDS011;54931;52.098;21.006;2022-12-07T03:02:59;14.90;;;7.50;;
68126;SDS011;54931;52.098;21.006;2022-12-07T03:06:03;14.40;;;8.30;;
68126;SDS011;54931;52.098;21.006;2022-12-07T03:08:50;15.00;;;8.60;;
68126;SDS011;54931;52.098;21.006;2022-12-07T03:14:34;14.60;;;7.50;;
68126;SDS011;54931;52.098;21.006;2022-12-07T03:17:17;12.10;;;6.10;;
68126;SDS011;54931;52.098;21.006;2022-12-07T03:19:51;12.40;;;6.10;;
68126;SDS011;54931;52.098;21.006;2022-12-07T03:22:25;12.00;;;6.60;;
68126;SDS011;54931;52.098;21.006;2022-12-07T03:24:59;14.80;;;6.80;;
68126;SDS011;54931;52.098;21.006;2022-12-07T03:27:35;12.70;;;6.30;;
68126;SDS011;54931;52.098;21.006;2022-12-07T03:30:08;11.70;;;5.80;;
68126;SDS011;54931;52.098;21.006;2022-12-07T03:32:48;11.70;;;5.70;;
68126;SDS011;54931;52.098;21.006;2022-12-07T03:35:43;9.30;;;4.60;;
68126;SDS011;54931;52.098;21.006;2022-12-07T03:40:50;10.30;;;6.10;;
68126;SDS011;54931;52.098;21.006;2022-12-07T03:43:30;10.80;;;5.60;;
68126;SDS011;54931;52.098;21.006;2022-12-07T03:46:17;10.60;;;5.50;;
68126;SDS011;54931;52.098;21.006;2022-12-07T03:49:25;13.10;;;6.10;;
68126;SDS011;54931;52.098;21.006;2022-12-07T03:55:18;12.50;;;6.70;;
68126;SDS011;54931;52.098;21.006;2022-12-07T03:57:56;11.50;;;6.30;;
68126;SDS011;54931;52.098;21.006;2022-12-07T04:00:28;11.00;;;6.00;;
68126;SDS011;54931;52.098;21.006;2022-12-07T04:02:56;10.60;;;6.10;;
68126;SDS011;54931;52.098;21.006;2022-12-07T04:05:24;9.40;;;4.70;;
68126;SDS011;54931;52.098;21.006;2022-12-07T04:07:52;8.30;;;5.20;;
68126;SDS011;54931;52.098;21.006;2022-12-07T04:10:20;9.60;;;5.80;;
68126;SDS011;54931;52.098;21.006;2022-12-07T04:12:47;13.10;;;6.00;;
68126;SDS011;54931;52.098;21.006;2022-12-07T04:15:15;11.00;;;5.30;;
68126;SDS011;54931;52.098;21.006;2022-12-07T04:17:43;13.00;;;6.70;;
68126;SDS011;54931;52.098;21.006;2022-12-07T04:20:11;14.80;;;7.00;;
68126;SDS011;54931;52.098;21.006;2022-12-07T04:22:40;15.20;;;7.70;;
68126;SDS011;54931;52.098;21.006;2022-12-07T04:25:07;12.70;;;7.30;;
68126;SDS011;54931;52.098;21.006;2022-12-07T04:27:36;17.40;;;7.70;;
68126;SDS011;54931;52.098;21.006;2022-12-07T04:30:04;15.90;;;8.10;;
68126;SDS011;54931;52.098;21.006;2022-12-07T04:32:34;16.00;;;7.80;;
68126;SDS011;54931;52.098;21.006;2022-12-07T04:35:03;11.90;;;5.20;;
68126;SDS011;54931;52.098;21.006;2022-12-07T04:37:33;17.90;;;8.50;;
68126;SDS011;54931;52.098;21.006;2022-12-07T04:40:03;19.60;;;7.80;;
68126;SDS011;54931;52.098;21.006;2022-12-07T04:42:32;20.50;;;9.10;;
68126;SDS011;54931;52.098;21.006;2022-12-07T04:45:00;18.60;;;8.90;;
68126;SDS011;54931;52.098;21.006;2022-12-07T04:47:28;17.50;;;8.60;;
68126;SDS011;54931;52.098;21.006;2022-12-07T04:49:57;12.40;;;6.20;;
68126;SDS011;54931;52.098;21.006;2022-12-07T04:52:25;16.80;;;7.40;;
68126;SDS011;54931;52.098;21.006;2022-12-07T04:54:53;19.60;;;8.00;;
68126;SDS011;54931;52.098;21.006;2022-12-07T04:57:20;16.40;;;7.70;;
68126;SDS011;54931;52.098;21.006;2022-12-07T04:59:48;18.60;;;8.20;;
68126;SDS011;54931;52.098;21.006;2022-12-07T05:02:16;16.20;;;8.20;;
68126;SDS011;54931;52.098;21.006;2022-12-07T05:04:43;17.80;;;7.90;;
68126;SDS011;54931;52.098;21.006;2022-12-07T05:07:11;14.60;;;8.20;;
68126;SDS011;54931;52.098;21.006;2022-12-07T05:09:38;14.40;;;7.80;;
68126;SDS011;54931;52.098;21.006;2022-12-07T05:12:06;15.20;;;7.70;;
68126;SDS011;54931;52.098;21.006;2022-12-07T05:14:33;15.10;;;6.60;;
68126;SDS011;54931;52.098;21.006;2022-12-07T05:17:01;15.40;;;7.30;;
68126;SDS011;54931;52.098;21.006;2022-12-07T05:19:29;15.80;;;7.70;;
68126;SDS011;54931;52.098;21.006;2022-12-07T05:21:57;16.80;;;8.40;;
68126;SDS011;54931;52.098;21.006;2022-12-07T05:24:24;15.70;;;8.00;;
68126;SDS011;54931;52.098;21.006;2022-12-07T05:26:52;18.50;;;7.40;;
68126;SDS011;54931;52.098;21.006;2022-12-07T05:29:20;17.20;;;7.40;;
68126;SDS011;54931;52.098;21.006;2022-12-07T05:31:47;13.00;;;6.90;;
68126;SDS011;54931;52.098;21.006;2022-12-07T05:34:15;12.20;;;5.90;;
68126;SDS011;54931;52.098;21.006;2022-12-07T05:36:42;15.70;;;7.90;;
68126;SDS011;54931;52.098;21.006;2022-12-07T05:39:10;16.20;;;7.80;;
68126;SDS011;54931;52.098;21.006;2022-12-07T05:41:38;16.10;;;7.70;;
68126;SDS011;54931;52.098;21.006;2022-12-07T05:44:25;17.10;;;8.80;;
68126;SDS011;54931;52.098;21.006;2022-12-07T05:46:53;15.00;;;8.00;;
68126;SDS011;54931;52.098;21.006;2022-12-07T05:49:21;16.20;;;7.40;;
68126;SDS011;54931;52.098;21.006;2022-12-07T05:51:48;15.30;;;7.20;;
68126;SDS011;54931;52.098;21.006;2022-12-07T05:54:16;17.20;;;7.60;;
68126;SDS011;54931;52.098;21.006;2022-12-07T05:56:44;21.30;;;9.80;;
68126;SDS011;54931;52.098;21.006;2022-12-07T05:59:12;15.30;;;8.10;;
68126;SDS011;54931;52.098;21.006;2022-12-07T06:02:01;18.00;;;8.40;;
68126;SDS011;54931;52.098;21.006;2022-12-07T06:04:34;17.40;;;7.90;;
68126;SDS011;54931;52.098;21.006;2022-12-07T06:07:04;17.70;;;7.90;;
68126;SDS011;54931;52.098;21.006;2022-12-07T06:09:33;18.60;;;8.70;;
68126;SDS011;54931;52.098;21.006;2022-12-07T06:12:03;19.50;;;7.90;;
68126;SDS011;54931;52.098;21.006;2022-12-07T06:14:50;14.80;;;6.20;;
68126;SDS011;54931;52.098;21.006;2022-12-07T06:17:18;19.60;;;9.20;;
68126;SDS011;54931;52.098;21.006;2022-12-07T06:19:46;21.00;;;10.30;;
68126;SDS011;54931;52.098;21.006;2022-12-07T06:22:14;18.80;;;9.30;;
68126;SDS011;54931;52.098;21.006;2022-12-07T06:24:43;20.00;;;9.00;;
68126;SDS011;54931;52.098;21.006;2022-12-07T06:27:11;18.70;;;7.20;;
68126;SDS011;54931;52.098;21.006;2022-12-07T06:29:39;17.80;;;8.60;;
68126;SDS011;54931;52.098;21.006;2022-12-07T06:32:06;18.70;;;9.10;;
68126;SDS011;54931;52.098;21.006;2022-12-07T06:34:35;19.40;;;9.20;;
68126;SDS011;54931;52.098;21.006;2022-12-07T06:37:03;19.20;;;9.40;;
68126;SDS011;54931;52.098;21.006;2022-12-07T06:39:31;18.30;;;8.90;;
68126;SDS011;54931;52.098;21.006;2022-12-07T06:41:59;14.40;;;6.80;;
68126;SDS011;54931;52.098;21.006;2022-12-07T06:44:26;19.00;;;8.60;;
68126;SDS011;54931;52.098;21.006;2022-12-07T06:46:55;20.30;;;8.60;;
68126;SDS011;54931;52.098;21.006;2022-12-07T06:49:23;17.10;;;7.70;;
68126;SDS011;54931;52.098;21.006;2022-12-07T06:51:51;15.30;;;6.90;;
68126;SDS011;54931;52.098;21.006;2022-12-07T06:54:19;19.80;;;9.20;;
68126;SDS011;54931;52.098;21.006;2022-12-07T06:56:47;16.50;;;7.70;;
68126;SDS011;54931;52.098;21.006;2022-12-07T06:59:15;18.90;;;8.90;;
68126;SDS011;54931;52.098;21.006;2022-12-07T07:01:43;18.10;;;9.00;;
68126;SDS011;54931;52.098;21.006;2022-12-07T07:04:10;17.90;;;8.90;;
68126;SDS011;54931;52.098;21.006;2022-12-07T07:06:38;20.50;;;9.40;;
68126;SDS011;54931;52.098;21.006;2022-12-07T07:09:06;18.80;;;8.60;;
68126;SDS011;54931;52.098;21.006;2022-12-07T07:11:34;21.10;;;8.30;;
68126;SDS011;54931;52.098;21.006;2022-12-07T07:14:01;19.90;;;8.10;;
68126;SDS011;54931;52.098;21.006;2022-12-07T07:16:30;16.30;;;7.90;;
68126;SDS011;54931;52.098;21.006;2022-12-07T07:18:58;15.80;;;6.70;;
68126;SDS011;54931;52.098;21.006;2022-12-07T07:21:26;18.90;;;8.60;;
68126;SDS011;54931;52.098;21.006;2022-12-07T07:23:53;18.70;;;8.40;;
68126;SDS011;54931;52.098;21.006;2022-12-07T07:26:21;18.20;;;7.80;;
68126;SDS011;54931;52.098;21.006;2022-12-07T07:28:49;17.90;;;7.80;;
68126;SDS011;54931;52.098;21.006;2022-12-07T07:31:16;18.00;;;7.50;;
68126;SDS011;54931;52.098;21.006;2022-12-07T07:33:45;16.30;;;7.00;;
68126;SDS011;54931;52.098;21.006;2022-12-07T07:36:14;17.70;;;7.80;;
68126;SDS011;54931;52.098;21.006;2022-12-07T07:38:41;15.00;;;8.10;;
68126;SDS011;54931;52.098;21.006;2022-12-07T07:41:09;14.30;;;6.30;;
68126;SDS011;54931;52.098;21.006;2022-12-07T07:43:37;17.10;;;7.50;;
68126;SDS011;54931;52.098;21.006;2022-12-07T07:46:05;14.60;;;7.30;;
68126;SDS011;54931;52.098;21.006;2022-12-07T07:48:33;15.10;;;7.00;;
68126;SDS011;54931;52.098;21.006;2022-12-07T07:51:05;17.70;;;7.70;;
68126;SDS011;54931;52.098;21.006;2022-12-07T07:53:34;15.10;;;7.80;;
68126;SDS011;54931;52.098;21.006;2022-12-07T07:56:03;16.30;;;7.70;;
68126;SDS011;54931;52.098;21.006;2022-12-07T07:58:31;15.00;;;6.60;;
68126;SDS011;54931;52.098;21.006;2022-12-07T08:01:06;15.60;;;8.10;;
68126;SDS011;54931;52.098;21.006;2022-12-07T08:03:35;13.90;;;7.50;;
68126;SDS011;54931;52.098;21.006;2022-12-07T08:06:03;16.10;;;6.90;;
68126;SDS011;54931;52.098;21.006;2022-12-07T08:08:31;16.80;;;7.90;;
68126;SDS011;54931;52.098;21.006;2022-12-07T08:10:59;15.50;;;7.40;;
68126;SDS011;54931;52.098;21.006;2022-12-07T08:13:28;13.80;;;6.20;;
68126;SDS011;54931;52.098;21.006;2022-12-07T08:15:56;13.50;;;7.00;;
68126;SDS011;54931;52.098;21.006;2022-12-07T08:18:24;15.50;;;7.20;;
68126;SDS011;54931;52.098;21.006;2022-12-07T08:20:51;13.00;;;6.20;;
68126;SDS011;54931;52.098;21.006;2022-12-07T08:23:19;15.20;;;7.60;;
68126;SDS011;54931;52.098;21.006;2022-12-07T08:25:46;15.10;;;6.80;;
68126;SDS011;54931;52.098;21.006;2022-12-07T08:28:15;14.80;;;7.60;;
68126;SDS011;54931;52.098;21.006;2022-12-07T08:30:42;14.70;;;8.10;;
68126;SDS011;54931;52.098;21.006;2022-12-07T08:33:10;12.70;;;6.80;;
68126;SDS011;54931;52.098;21.006;2022-12-07T08:35:38;15.30;;;7.50;;
68126;SDS011;54931;52.098;21.006;2022-12-07T08:38:06;11.90;;;6.30;;
68126;SDS011;54931;52.098;21.006;2022-12-07T08:40:34;15.80;;;7.30;;
68126;SDS011;54931;52.098;21.006;2022-12-07T08:43:03;14.90;;;8.30;;
68126;SDS011;54931;52.098;21.006;2022-12-07T08:45:31;18.10;;;9.20;;
68126;SDS011;54931;52.098;21.006;2022-12-07T08:48:07;16.60;;;7.80;;
68126;SDS011;54931;52.098;21.006;2022-12-07T08:50:37;16.10;;;7.70;;
68126;SDS011;54931;52.098;21.006;2022-12-07T08:53:06;15.80;;;7.70;;
68126;SDS011;54931;52.098;21.006;2022-12-07T08:55:34;18.50;;;8.40;;
68126;SDS011;54931;52.098;21.006;2022-12-07T08:58:03;19.00;;;8.00;;
68126;SDS011;54931;52.098;21.006;2022-12-07T09:00:31;21.10;;;8.90;;
68126;SDS011;54931;52.098;21.006;2022-12-07T09:02:58;17.40;;;8.40;;
68126;SDS011;54931;52.098;21.006;2022-12-07T09:05:26;20.10;;;9.10;;
68126;SDS011;54931;52.098;21.006;2022-12-07T09:07:56;17.50;;;8.90;;
68126;SDS011;54931;52.098;21.006;2022-12-07T09:10:28;20.40;;;8.50;;
68126;SDS011;54931;52.098;21.006;2022-12-07T09:12:57;17.90;;;8.40;;
68126;SDS011;54931;52.098;21.006;2022-12-07T09:15:29;22.50;;;8.70;;
68126;SDS011;54931;52.098;21.006;2022-12-07T09:17:58;23.90;;;9.20;;
68126;SDS011;54931;52.098;21.006;2022-12-07T09:20:26;23.70;;;9.60;;
68126;SDS011;54931;52.098;21.006;2022-12-07T09:22:54;19.90;;;9.20;;
68126;SDS011;54931;52.098;21.006;2022-12-07T09:25:22;23.90;;;10.00;;
68126;SDS011;54931;52.098;21.006;2022-12-07T09:27:57;23.70;;;9.70;;
68126;SDS011;54931;52.098;21.006;2022-12-07T09:30:26;18.50;;;8.00;;
68126;SDS011;54931;52.098;21.006;2022-12-07T09:32:56;19.70;;;9.30;;
68126;SDS011;54931;52.098;21.006;2022-12-07T09:35:25;27.40;;;10.50;;
68126;SDS011;54931;52.098;21.006;2022-12-07T09:37:53;21.20;;;9.60;;
68126;SDS011;54931;52.098;21.006;2022-12-07T09:40:22;24.20;;;10.60;;
68126;SDS011;54931;52.098;21.006;2022-12-07T09:42:53;22.40;;;9.00;;
68126;SDS011;54931;52.098;21.006;2022-12-07T09:45:34;23.40;;;10.30;;
68126;SDS011;54931;52.098;21.006;2022-12-07T09:48:04;22.90;;;11.00;;
68126;SDS011;54931;52.098;21.006;2022-12-07T09:50:32;30.10;;;11.40;;
68126;SDS011;54931;52.098;21.006;2022-12-07T09:53:08;32.50;;;12.30;;
68126;SDS011;54931;52.098;21.006;2022-12-07T09:55:53;24.50;;;11.10;;
68126;SDS011;54931;52.098;21.006;2022-12-07T09:58:25;28.50;;;10.70;;
68126;SDS011;54931;52.098;21.006;2022-12-07T10:03:36;23.10;;;9.70;;
68126;SDS011;54931;52.098;21.006;2022-12-07T10:06:06;29.90;;;12.20;;
68126;SDS011;54931;52.098;21.006;2022-12-07T10:08:34;27.30;;;11.00;;
68126;SDS011;54931;52.098;21.006;2022-12-07T10:11:03;24.10;;;10.60;;
68126;SDS011;54931;52.098;21.006;2022-12-07T10:13:39;19.10;;;7.50;;
68126;SDS011;54931;52.098;21.006;2022-12-07T10:18:52;23.90;;;9.10;;
68126;SDS011;54931;52.098;21.006;2022-12-07T10:21:23;20.60;;;8.40;;
68126;SDS011;54931;52.098;21.006;2022-12-07T10:26:48;22.80;;;9.00;;
68126;SDS011;54931;52.098;21.006;2022-12-07T10:32:01;20.80;;;10.10;;
68126;SDS011;54931;52.098;21.006;2022-12-07T10:34:42;23.90;;;10.40;;
68126;SDS011;54931;52.098;21.006;2022-12-07T10:40:01;22.40;;;9.70;;
68126;SDS011;54931;52.098;21.006;2022-12-07T10:42:32;21.20;;;9.70;;
68126;SDS011;54931;52.098;21.006;2022-12-07T10:45:29;21.20;;;9.20;;
68126;SDS011;54931;52.098;21.006;2022-12-07T10:48:13;17.90;;;8.40;;
68126;SDS011;54931;52.098;21.006;2022-12-07T10:50:56;21.50;;;8.80;;
68126;SDS011;54931;52.098;21.006;2022-12-07T10:57:00;20.10;;;9.60;;
68126;SDS011;54931;52.098;21.006;2022-12-07T11:00:02;16.90;;;7.70;;
68126;SDS011;54931;52.098;21.006;2022-12-07T11:06:13;19.30;;;9.50;;
68126;SDS011;54931;52.098;21.006;2022-12-07T11:12:20;14.80;;;6.50;;
68126;SDS011;54931;52.098;21.006;2022-12-07T11:15:04;18.20;;;10.10;;
68126;SDS011;54931;52.098;21.006;2022-12-07T11:18:21;17.90;;;9.20;;
68126;SDS011;54931;52.098;21.006;2022-12-07T11:21:06;19.80;;;8.00;;
68126;SDS011;54931;52.098;21.006;2022-12-07T11:24:05;17.00;;;8.40;;
68126;SDS011;54931;52.098;21.006;2022-12-07T11:35:38;17.60;;;8.60;;
68126;SDS011;54931;52.098;21.006;2022-12-07T11:38:28;19.00;;;8.00;;
68126;SDS011;54931;52.098;21.006;2022-12-07T11:41:10;16.30;;;8.10;;
68126;SDS011;54931;52.098;21.006;2022-12-07T11:44:20;20.00;;;8.00;;
68126;SDS011;54931;52.098;21.006;2022-12-07T11:50:25;20.90;;;9.60;;
68126;SDS011;54931;52.098;21.006;2022-12-07T11:55:43;21.90;;;9.10;;
68126;SDS011;54931;52.098;21.006;2022-12-07T12:03:46;19.40;;;8.90;;
68126;SDS011;54931;52.098;21.006;2022-12-07T12:06:16;19.40;;;7.90;;
68126;SDS011;54931;52.098;21.006;2022-12-07T12:17:26;21.90;;;10.50;;
68126;SDS011;54931;52.098;21.006;2022-12-07T12:20:32;18.20;;;7.50;;
68126;SDS011;54931;52.098;21.006;2022-12-07T12:26:24;19.60;;;8.50;;
68126;SDS011;54931;52.098;21.006;2022-12-07T12:29:05;23.00;;;11.10;;
68126;SDS011;54931;52.098;21.006;2022-12-07T12:31:40;22.20;;;9.60;;
68126;SDS011;54931;52.098;21.006;2022-12-07T12:37:39;17.10;;;8.00;;
68126;SDS011;54931;52.098;21.006;2022-12-07T12:42:50;22.30;;;10.40;;
68126;SDS011;54931;52.098;21.006;2022-12-07T12:45:24;24.70;;;10.80;;
68126;SDS011;54931;52.098;21.006;2022-12-07T12:47:59;28.20;;;12.50;;
68126;SDS011;54931;52.098;21.006;2022-12-07T12:50:36;30.60;;;13.30;;
68126;SDS011;54931;52.098;21.006;2022-12-07T12:53:34;29.50;;;11.80;;
68126;SDS011;54931;52.098;21.006;2022-12-07T12:56:23;33.50;;;14.90;;
68126;SDS011;54931;52.098;21.006;2022-12-07T12:59:25;36.90;;;15.50;;
68126;SDS011;54931;52.098;21.006;2022-12-07T13:15:53;21.90;;;8.70;;
68126;SDS011;54931;52.098;21.006;2022-12-07T13:18:41;23.90;;;11.40;;
68126;SDS011;54931;52.098;21.006;2022-12-07T13:26:21;20.70;;;9.40;;
68126;SDS011;54931;52.098;21.006;2022-12-07T13:34:34;19.50;;;10.00;;
68126;SDS011;54931;52.098;21.006;2022-12-07T13:37:14;16.60;;;8.50;;
68126;SDS011;54931;52.098;21.006;2022-12-07T13:40:00;17.80;;;7.90;;
68126;SDS011;54931;52.098;21.006;2022-12-07T13:42:44;19.60;;;9.90;;
68126;SDS011;54931;52.098;21.006;2022-12-07T13:45:44;20.20;;;10.10;;
68126;SDS011;54931;52.098;21.006;2022-12-07T13:51:02;14.80;;;8.40;;
68126;SDS011;54931;52.098;21.006;2022-12-07T13:53:31;15.40;;;8.50;;
68126;SDS011;54931;52.098;21.006;2022-12-07T13:56:00;17.40;;;9.30;;
68126;SDS011;54931;52.098;21.006;2022-12-07T13:58:31;17.30;;;8.70;;
68126;SDS011;54931;52.098;21.006;2022-12-07T14:01:00;20.70;;;9.50;;
68126;SDS011;54931;52.098;21.006;2022-12-07T14:03:33;16.20;;;8.30;;
68126;SDS011;54931;52.098;21.006;2022-12-07T14:06:15;19.80;;;10.40;;
68126;SDS011;54931;52.098;21.006;2022-12-07T14:08:46;19.70;;;9.90;;
68126;SDS011;54931;52.098;21.006;2022-12-07T14:11:19;19.00;;;9.00;;
68126;SDS011;54931;52.098;21.006;2022-12-07T14:14:02;22.90;;;11.50;;
68126;SDS011;54931;52.098;21.006;2022-12-07T14:16:35;21.50;;;10.80;;
68126;SDS011;54931;52.098;21.006;2022-12-07T14:25:23;27.80;;;12.80;;
68126;SDS011;54931;52.098;21.006;2022-12-07T14:27:57;36.50;;;14.60;;
68126;SDS011;54931;52.098;21.006;2022-12-07T14:30:31;26.20;;;12.00;;
68126;SDS011;54931;52.098;21.006;2022-12-07T14:33:04;20.20;;;9.40;;
68126;SDS011;54931;52.098;21.006;2022-12-07T14:35:33;28.90;;;13.10;;
68126;SDS011;54931;52.098;21.006;2022-12-07T14:38:00;25.40;;;12.00;;
68126;SDS011;54931;52.098;21.006;2022-12-07T14:40:29;28.90;;;13.10;;
68126;SDS011;54931;52.098;21.006;2022-12-07T14:43:01;37.20;;;17.60;;
68126;SDS011;54931;52.098;21.006;2022-12-07T14:45:31;30.60;;;13.20;;
68126;SDS011;54931;52.098;21.006;2022-12-07T14:47:59;31.30;;;16.50;;
68126;SDS011;54931;52.098;21.006;2022-12-07T14:50:37;22.00;;;11.30;;
68126;SDS011;54931;52.098;21.006;2022-12-07T14:53:16;21.20;;;10.20;;
68126;SDS011;54931;52.098;21.006;2022-12-07T14:56:04;22.50;;;11.60;;
68126;SDS011;54931;52.098;21.006;2022-12-07T14:58:33;24.40;;;11.30;;
68126;SDS011;54931;52.098;21.006;2022-12-07T15:01:01;18.00;;;9.10;;
68126;SDS011;54931;52.098;21.006;2022-12-07T15:03:29;22.90;;;11.00;;
68126;SDS011;54931;52.098;21.006;2022-12-07T15:05:57;16.10;;;8.30;;
68126;SDS011;54931;52.098;21.006;2022-12-07T15:08:26;18.60;;;8.90;;
68126;SDS011;54931;52.098;21.006;2022-12-07T15:10:53;15.00;;;8.00;;
68126;SDS011;54931;52.098;21.006;2022-12-07T15:13:21;14.10;;;7.30;;
68126;SDS011;54931;52.098;21.006;2022-12-07T15:16:14;19.10;;;8.40;;
68126;SDS011;54931;52.098;21.006;2022-12-07T15:18:46;17.70;;;7.80;;
68126;SDS011;54931;52.098;21.006;2022-12-07T15:21:15;22.30;;;9.80;;
68126;SDS011;54931;52.098;21.006;2022-12-07T15:23:43;26.60;;;11.00;;
68126;SDS011;54931;52.098;21.006;2022-12-07T15:26:13;15.90;;;7.80;;
68126;SDS011;54931;52.098;21.006;2022-12-07T15:28:41;14.60;;;6.20;;
68126;SDS011;54931;52.098;21.006;2022-12-07T15:31:14;23.00;;;10.80;;
68126;SDS011;54931;52.098;21.006;2022-12-07T15:33:43;20.30;;;10.00;;
68126;SDS011;54931;52.098;21.006;2022-12-07T15:36:19;22.00;;;11.00;;
68126;SDS011;54931;52.098;21.006;2022-12-07T15:38:49;22.50;;;10.60;;
68126;SDS011;54931;52.098;21.006;2022-12-07T15:41:18;18.50;;;9.00;;
68126;SDS011;54931;52.098;21.006;2022-12-07T15:43:46;14.40;;;7.40;;
68126;SDS011;54931;52.098;21.006;2022-12-07T15:46:35;23.00;;;10.80;;
68126;SDS011;54931;52.098;21.006;2022-12-07T15:49:18;21.90;;;9.60;;
68126;SDS011;54931;52.098;21.006;2022-12-07T15:51:46;16.80;;;7.70;;
68126;SDS011;54931;52.098;21.006;2022-12-07T15:54:24;19.10;;;9.50;;
68126;SDS011;54931;52.098;21.006;2022-12-07T15:56:54;14.40;;;7.10;;
68126;SDS011;54931;52.098;21.006;2022-12-07T15:59:23;27.20;;;12.30;;
68126;SDS011;54931;52.098;21.006;2022-12-07T16:01:52;20.90;;;8.00;;
68126;SDS011;54931;52.098;21.006;2022-12-07T16:04:20;24.70;;;11.30;;
68126;SDS011;54931;52.098;21.006;2022-12-07T16:06:48;26.90;;;12.00;;
68126;SDS011;54931;52.098;21.006;2022-12-07T16:09:18;26.50;;;11.30;;
68126;SDS011;54931;52.098;21.006;2022-12-07T16:11:46;27.40;;;12.20;;
68126;SDS011;54931;52.098;21.006;2022-12-07T16:14:14;21.40;;;9.80;;
68126;SDS011;54931;52.098;21.006;2022-12-07T16:16:43;24.80;;;11.10;;
68126;SDS011;54931;52.098;21.006;2022-12-07T16:19:10;27.60;;;12.40;;
68126;SDS011;54931;52.098;21.006;2022-12-07T16:21:39;18.90;;;8.00;;
68126;SDS011;54931;52.098;21.006;2022-12-07T16:24:08;22.90;;;8.20;;
68126;SDS011;54931;52.098;21.006;2022-12-07T16:26:37;23.30;;;10.80;;
68126;SDS011;54931;52.098;21.006;2022-12-07T16:29:05;20.40;;;9.50;;
68126;SDS011;54931;52.098;21.006;2022-12-07T16:31:33;23.40;;;10.20;;
68126;SDS011;54931;52.098;21.006;2022-12-07T16:34:01;21.70;;;9.60;;
68126;SDS011;54931;52.098;21.006;2022-12-07T16:36:29;21.10;;;10.20;;
68126;SDS011;54931;52.098;21.006;2022-12-07T16:38:59;25.30;;;11.40;;
68126;SDS011;54931;52.098;21.006;2022-12-07T16:41:27;18.90;;;8.20;;
68126;SDS011;54931;52.098;21.006;2022-12-07T16:43:56;20.70;;;9.30;;
68126;SDS011;54931;52.098;21.006;2022-12-07T16:46:24;27.00;;;13.70;;